sensor_id;sensor_type;location;lat;lon;timestamp;P1;durP1;ratioP1;P2;durP2;ratioP2
16828;SDS011;8531;48.078;11.968;2023-07-02T00:02:06;2.15;;;1.65;;
16828;SDS011;8531;48.078;11.968;2023-07-02T00:04:33;2.17;;;1.88;;
16828;SDS011;8531;48.078;11.968;2023-07-02T00:06:58;2.28;;;1.67;;
16828;SDS011;8531;48.078;11.968;2023-07-02T00:09:24;2.92;;;1.70;;
16828;SDS011;8531;48.078;11.968;2023-07-02T00:11:49;2.38;;;1.63;;
16828;SDS011;8531;48.078;11.968;2023-07-02T00:14:15;1.85;;;1.65;;
16828;SDS011;8531;48.078;11.968;2023-07-02T00:16:44;1.95;;;1.40;;
16828;SDS011;8531;48.078;11.968;2023-07-02T00:19:13;2.28;;;1.70;;
16828;SDS011;8531;48.078;11.968;2023-07-02T00:21:40;2.55;;;1.92;;
16828;SDS011;8531;48.078;11.968;2023-07-02T00:24:06;11.15;;;1.80;;
16828;SDS011;8531;48.078;11.968;2023-07-02T00:26:34;1.98;;;1.77;;
16828;SDS011;8531;48.078;11.968;2023-07-02T00:29:02;2.20;;;2.00;;
16828;SDS011;8531;48.078;11.968;2023-07-02T00:31:29;2.42;;;1.90;;
16828;SDS011;8531;48.078;11.968;2023-07-02T00:33:54;2.92;;;1.90;;
16828;SDS011;8531;48.078;11.968;2023-07-02T00:36:20;2.00;;;1.77;;
16828;SDS011;8531;48.078;11.968;2023-07-02T00:38:46;4.10;;;1.73;;
16828;SDS011;8531;48.078;11.968;2023-07-02T00:41:13;5.95;;;1.70;;
16828;SDS011;8531;48.078;11.968;2023-07-02T00:43:39;2.85;;;1.80;;
16828;SDS011;8531;48.078;11.968;2023-07-02T00:46:08;3.08;;;1.80;;
16828;SDS011;8531;48.078;11.968;2023-07-02T00:48:36;2.45;;;2.25;;
16828;SDS011;8531;48.078;11.968;2023-07-02T00:51:03;2.42;;;2.22;;
16828;SDS011;8531;48.078;11.968;2023-07-02T00:53:29;1.95;;;1.70;;
16828;SDS011;8531;48.078;11.968;2023-07-02T00:55:55;2.22;;;2.00;;
16828;SDS011;8531;48.078;11.968;2023-07-02T00:58:20;1.73;;;1.58;;
16828;SDS011;8531;48.078;11.968;2023-07-02T01:00:46;2.97;;;1.80;;
16828;SDS011;8531;48.078;11.968;2023-07-02T01:03:12;4.20;;;1.98;;
16828;SDS011;8531;48.078;11.968;2023-07-02T01:05:38;1.70;;;1.60;;
16828;SDS011;8531;48.078;11.968;2023-07-02T01:08:06;2.33;;;2.00;;
16828;SDS011;8531;48.078;11.968;2023-07-02T01:10:32;3.35;;;1.77;;
16828;SDS011;8531;48.078;11.968;2023-07-02T01:13:00;2.17;;;1.77;;
16828;SDS011;8531;48.078;11.968;2023-07-02T01:15:30;2.20;;;2.00;;
16828;SDS011;8531;48.078;11.968;2023-07-02T01:17:57;4.03;;;2.10;;
16828;SDS011;8531;48.078;11.968;2023-07-02T01:20:23;3.88;;;2.33;;
16828;SDS011;8531;48.078;11.968;2023-07-02T01:22:50;2.65;;;1.80;;
16828;SDS011;8531;48.078;11.968;2023-07-02T01:25:18;2.33;;;1.70;;
16828;SDS011;8531;48.078;11.968;2023-07-02T01:27:49;3.10;;;1.58;;
16828;SDS011;8531;48.078;11.968;2023-07-02T01:30:15;1.50;;;1.40;;
16828;SDS011;8531;48.078;11.968;2023-07-02T01:32:41;1.73;;;1.63;;
16828;SDS011;8531;48.078;11.968;2023-07-02T01:35:07;2.05;;;1.85;;
16828;SDS011;8531;48.078;11.968;2023-07-02T01:37:33;3.25;;;1.95;;
16828;SDS011;8531;48.078;11.968;2023-07-02T01:40:02;1.77;;;1.55;;
16828;SDS011;8531;48.078;11.968;2023-07-02T01:42:32;1.80;;;1.35;;
16828;SDS011;8531;48.078;11.968;2023-07-02T01:44:58;1.55;;;1.38;;
16828;SDS011;8531;48.078;11.968;2023-07-02T01:47:23;3.25;;;1.73;;
16828;SDS011;8531;48.078;11.968;2023-07-02T01:49:49;1.67;;;1.40;;
16828;SDS011;8531;48.078;11.968;2023-07-02T01:52:15;1.33;;;1.23;;
16828;SDS011;8531;48.078;11.968;2023-07-02T01:54:41;1.45;;;1.13;;
16828;SDS011;8531;48.078;11.968;2023-07-02T01:57:07;1.40;;;1.20;;
16828;SDS011;8531;48.078;11.968;2023-07-02T01:59:33;1.00;;;0.90;;
16828;SDS011;8531;48.078;11.968;2023-07-02T02:01:59;5.13;;;1.35;;
16828;SDS011;8531;48.078;11.968;2023-07-02T02:04:25;1.23;;;1.10;;
16828;SDS011;8531;48.078;11.968;2023-07-02T02:06:51;3.92;;;1.02;;
16828;SDS011;8531;48.078;11.968;2023-07-02T02:09:17;1.20;;;1.10;;
16828;SDS011;8531;48.078;11.968;2023-07-02T02:11:45;1.75;;;0.93;;
16828;SDS011;8531;48.078;11.968;2023-07-02T02:14:13;1.25;;;1.15;;
16828;SDS011;8531;48.078;11.968;2023-07-02T02:16:39;1.73;;;1.20;;
16828;SDS011;8531;48.078;11.968;2023-07-02T02:19:05;1.30;;;0.90;;
16828;SDS011;8531;48.078;11.968;2023-07-02T02:21:31;1.27;;;1.00;;
16828;SDS011;8531;48.078;11.968;2023-07-02T02:23:57;1.33;;;1.02;;
16828;SDS011;8531;48.078;11.968;2023-07-02T02:26:23;2.03;;;1.15;;
16828;SDS011;8531;48.078;11.968;2023-07-02T02:28:50;0.90;;;0.73;;
16828;SDS011;8531;48.078;11.968;2023-07-02T02:31:16;1.27;;;1.10;;
16828;SDS011;8531;48.078;11.968;2023-07-02T02:33:42;1.73;;;1.05;;
16828;SDS011;8531;48.078;11.968;2023-07-02T02:36:08;1.38;;;1.23;;
16828;SDS011;8531;48.078;11.968;2023-07-02T02:38:34;0.95;;;0.85;;
16828;SDS011;8531;48.078;11.968;2023-07-02T02:41:02;0.75;;;0.75;;
16828;SDS011;8531;48.078;11.968;2023-07-02T02:43:27;1.30;;;0.95;;
16828;SDS011;8531;48.078;11.968;2023-07-02T02:45:53;1.55;;;0.70;;
16828;SDS011;8531;48.078;11.968;2023-07-02T02:48:19;1.10;;;1.00;;
16828;SDS011;8531;48.078;11.968;2023-07-02T02:50:45;0.80;;;0.80;;
16828;SDS011;8531;48.078;11.968;2023-07-02T02:53:11;2.03;;;0.93;;
16828;SDS011;8531;48.078;11.968;2023-07-02T02:55:37;1.02;;;0.90;;
16828;SDS011;8531;48.078;11.968;2023-07-02T02:58:03;1.92;;;1.00;;
16828;SDS011;8531;48.078;11.968;2023-07-02T03:00:29;1.13;;;1.02;;
16828;SDS011;8531;48.078;11.968;2023-07-02T03:02:55;1.00;;;0.90;;
16828;SDS011;8531;48.078;11.968;2023-07-02T03:05:21;2.08;;;1.13;;
16828;SDS011;8531;48.078;11.968;2023-07-02T03:07:47;1.20;;;1.05;;
16828;SDS011;8531;48.078;11.968;2023-07-02T03:10:13;1.33;;;0.90;;
16828;SDS011;8531;48.078;11.968;2023-07-02T03:12:38;1.75;;;1.10;;
16828;SDS011;8531;48.078;11.968;2023-07-02T03:15:04;1.40;;;1.10;;
16828;SDS011;8531;48.078;11.968;2023-07-02T03:17:30;1.33;;;1.00;;
16828;SDS011;8531;48.078;11.968;2023-07-02T03:19:56;1.00;;;0.90;;
16828;SDS011;8531;48.078;11.968;2023-07-02T03:22:22;1.00;;;0.90;;
16828;SDS011;8531;48.078;11.968;2023-07-02T03:24:47;0.80;;;0.80;;
16828;SDS011;8531;48.078;11.968;2023-07-02T03:27:13;1.13;;;0.90;;
16828;SDS011;8531;48.078;11.968;2023-07-02T03:29:39;0.95;;;0.90;;
16828;SDS011;8531;48.078;11.968;2023-07-02T03:32:04;1.45;;;1.08;;
16828;SDS011;8531;48.078;11.968;2023-07-02T03:34:30;1.73;;;1.20;;
16828;SDS011;8531;48.078;11.968;2023-07-02T03:36:56;1.33;;;0.90;;
16828;SDS011;8531;48.078;11.968;2023-07-02T03:39:22;1.42;;;0.85;;
16828;SDS011;8531;48.078;11.968;2023-07-02T03:41:47;2.15;;;1.33;;
16828;SDS011;8531;48.078;11.968;2023-07-02T03:44:13;1.38;;;0.80;;
16828;SDS011;8531;48.078;11.968;2023-07-02T03:46:39;1.38;;;0.95;;
16828;SDS011;8531;48.078;11.968;2023-07-02T03:49:04;1.88;;;1.17;;
16828;SDS011;8531;48.078;11.968;2023-07-02T03:51:31;0.90;;;0.90;;
16828;SDS011;8531;48.078;11.968;2023-07-02T03:53:58;2.78;;;1.25;;
16828;SDS011;8531;48.078;11.968;2023-07-02T03:56:24;3.03;;;1.33;;
16828;SDS011;8531;48.078;11.968;2023-07-02T03:58:49;1.40;;;1.30;;
16828;SDS011;8531;48.078;11.968;2023-07-02T04:01:15;2.70;;;1.40;;
16828;SDS011;8531;48.078;11.968;2023-07-02T04:03:48;1.48;;;1.15;;
16828;SDS011;8531;48.078;11.968;2023-07-02T04:06:15;1.83;;;1.25;;
16828;SDS011;8531;48.078;11.968;2023-07-02T04:08:41;3.45;;;1.27;;
16828;SDS011;8531;48.078;11.968;2023-07-02T04:11:06;2.72;;;1.50;;
16828;SDS011;8531;48.078;11.968;2023-07-02T04:13:32;1.75;;;1.38;;
16828;SDS011;8531;48.078;11.968;2023-07-02T04:15:58;2.05;;;1.40;;
16828;SDS011;8531;48.078;11.968;2023-07-02T04:18:23;5.95;;;1.83;;
16828;SDS011;8531;48.078;11.968;2023-07-02T04:20:49;2.47;;;1.33;;
16828;SDS011;8531;48.078;11.968;2023-07-02T04:23:15;3.60;;;1.73;;
16828;SDS011;8531;48.078;11.968;2023-07-02T04:25:41;2.90;;;1.52;;
16828;SDS011;8531;48.078;11.968;2023-07-02T04:28:07;4.30;;;1.92;;
16828;SDS011;8531;48.078;11.968;2023-07-02T04:30:32;2.83;;;1.70;;
16828;SDS011;8531;48.078;11.968;2023-07-02T04:32:58;3.47;;;1.98;;
16828;SDS011;8531;48.078;11.968;2023-07-02T04:35:24;2.10;;;1.77;;
16828;SDS011;8531;48.078;11.968;2023-07-02T04:37:49;3.53;;;1.75;;
16828;SDS011;8531;48.078;11.968;2023-07-02T04:40:15;3.40;;;2.00;;
16828;SDS011;8531;48.078;11.968;2023-07-02T04:42:41;5.55;;;1.60;;
16828;SDS011;8531;48.078;11.968;2023-07-02T04:45:12;2.83;;;1.73;;
16828;SDS011;8531;48.078;11.968;2023-07-02T04:47:40;2.13;;;1.45;;
16828;SDS011;8531;48.078;11.968;2023-07-02T04:50:07;5.03;;;2.00;;
16828;SDS011;8531;48.078;11.968;2023-07-02T04:52:33;3.50;;;1.50;;
16828;SDS011;8531;48.078;11.968;2023-07-02T04:54:58;3.97;;;1.98;;
16828;SDS011;8531;48.078;11.968;2023-07-02T04:57:24;2.72;;;1.55;;
16828;SDS011;8531;48.078;11.968;2023-07-02T04:59:50;2.88;;;1.70;;
16828;SDS011;8531;48.078;11.968;2023-07-02T05:02:15;11.52;;;9.55;;
16828;SDS011;8531;48.078;11.968;2023-07-02T05:04:41;1.98;;;1.75;;
16828;SDS011;8531;48.078;11.968;2023-07-02T05:07:07;2.65;;;1.55;;
16828;SDS011;8531;48.078;11.968;2023-07-02T05:09:32;2.30;;;1.48;;
16828;SDS011;8531;48.078;11.968;2023-07-02T05:11:58;3.03;;;1.42;;
16828;SDS011;8531;48.078;11.968;2023-07-02T05:14:23;3.78;;;1.70;;
16828;SDS011;8531;48.078;11.968;2023-07-02T05:16:49;1.70;;;1.50;;
16828;SDS011;8531;48.078;11.968;2023-07-02T05:19:15;2.45;;;1.90;;
16828;SDS011;8531;48.078;11.968;2023-07-02T05:21:41;2.53;;;1.75;;
16828;SDS011;8531;48.078;11.968;2023-07-02T05:24:07;2.83;;;2.17;;
16828;SDS011;8531;48.078;11.968;2023-07-02T05:26:33;5.40;;;1.65;;
16828;SDS011;8531;48.078;11.968;2023-07-02T05:29:00;2.10;;;1.77;;
16828;SDS011;8531;48.078;11.968;2023-07-02T05:31:26;3.92;;;1.60;;
16828;SDS011;8531;48.078;11.968;2023-07-02T05:33:52;2.67;;;2.20;;
16828;SDS011;8531;48.078;11.968;2023-07-02T05:36:18;1.60;;;1.50;;
16828;SDS011;8531;48.078;11.968;2023-07-02T05:38:44;2.20;;;2.00;;
16828;SDS011;8531;48.078;11.968;2023-07-02T05:41:10;3.88;;;1.90;;
16828;SDS011;8531;48.078;11.968;2023-07-02T05:43:36;2.88;;;1.80;;
16828;SDS011;8531;48.078;11.968;2023-07-02T05:46:01;4.00;;;2.10;;
16828;SDS011;8531;48.078;11.968;2023-07-02T05:48:27;4.68;;;2.47;;
16828;SDS011;8531;48.078;11.968;2023-07-02T05:50:53;2.40;;;1.60;;
16828;SDS011;8531;48.078;11.968;2023-07-02T05:53:19;4.43;;;1.77;;
16828;SDS011;8531;48.078;11.968;2023-07-02T05:55:45;2.67;;;1.70;;
16828;SDS011;8531;48.078;11.968;2023-07-02T05:58:12;2.20;;;1.63;;
16828;SDS011;8531;48.078;11.968;2023-07-02T06:00:37;4.53;;;2.15;;
16828;SDS011;8531;48.078;11.968;2023-07-02T06:03:04;2.45;;;1.60;;
16828;SDS011;8531;48.078;11.968;2023-07-02T06:05:30;1.92;;;1.58;;
16828;SDS011;8531;48.078;11.968;2023-07-02T06:07:55;4.50;;;1.70;;
16828;SDS011;8531;48.078;11.968;2023-07-02T06:10:21;4.03;;;1.52;;
16828;SDS011;8531;48.078;11.968;2023-07-02T06:12:47;1.85;;;1.60;;
16828;SDS011;8531;48.078;11.968;2023-07-02T06:15:12;4.00;;;1.95;;
16828;SDS011;8531;48.078;11.968;2023-07-02T06:17:38;1.42;;;1.33;;
16828;SDS011;8531;48.078;11.968;2023-07-02T06:20:04;2.13;;;1.70;;
16828;SDS011;8531;48.078;11.968;2023-07-02T06:22:30;3.28;;;2.28;;
16828;SDS011;8531;48.078;11.968;2023-07-02T06:24:56;3.72;;;1.95;;
16828;SDS011;8531;48.078;11.968;2023-07-02T06:27:22;2.05;;;1.80;;
16828;SDS011;8531;48.078;11.968;2023-07-02T06:29:47;3.00;;;2.30;;
16828;SDS011;8531;48.078;11.968;2023-07-02T06:32:13;2.47;;;2.10;;
16828;SDS011;8531;48.078;11.968;2023-07-02T06:34:39;3.88;;;2.33;;
16828;SDS011;8531;48.078;11.968;2023-07-02T06:37:04;4.57;;;2.40;;
16828;SDS011;8531;48.078;11.968;2023-07-02T06:39:30;2.22;;;1.98;;
16828;SDS011;8531;48.078;11.968;2023-07-02T06:41:56;2.25;;;2.00;;
16828;SDS011;8531;48.078;11.968;2023-07-02T06:44:22;2.80;;;2.22;;
16828;SDS011;8531;48.078;11.968;2023-07-02T06:46:47;2.80;;;2.00;;
16828;SDS011;8531;48.078;11.968;2023-07-02T06:49:13;3.95;;;2.50;;
16828;SDS011;8531;48.078;11.968;2023-07-02T06:51:38;2.95;;;2.35;;
16828;SDS011;8531;48.078;11.968;2023-07-02T06:54:04;3.00;;;2.40;;
16828;SDS011;8531;48.078;11.968;2023-07-02T06:56:30;2.42;;;1.83;;
16828;SDS011;8531;48.078;11.968;2023-07-02T06:58:57;2.97;;;2.15;;
16828;SDS011;8531;48.078;11.968;2023-07-02T07:01:23;3.15;;;2.20;;
16828;SDS011;8531;48.078;11.968;2023-07-02T07:03:48;3.45;;;2.33;;
16828;SDS011;8531;48.078;11.968;2023-07-02T07:06:14;2.22;;;1.92;;
16828;SDS011;8531;48.078;11.968;2023-07-02T07:08:40;2.33;;;2.00;;
16828;SDS011;8531;48.078;11.968;2023-07-02T07:11:06;2.40;;;1.95;;
16828;SDS011;8531;48.078;11.968;2023-07-02T07:13:32;2.50;;;2.30;;
16828;SDS011;8531;48.078;11.968;2023-07-02T07:15:57;3.85;;;2.22;;
16828;SDS011;8531;48.078;11.968;2023-07-02T07:18:23;3.50;;;2.40;;
16828;SDS011;8531;48.078;11.968;2023-07-02T07:20:49;2.83;;;2.38;;
16828;SDS011;8531;48.078;11.968;2023-07-02T07:23:15;3.38;;;1.80;;
16828;SDS011;8531;48.078;11.968;2023-07-02T07:25:42;4.35;;;2.50;;
16828;SDS011;8531;48.078;11.968;2023-07-02T07:28:08;2.50;;;2.15;;
16828;SDS011;8531;48.078;11.968;2023-07-02T07:30:41;3.20;;;2.60;;
16828;SDS011;8531;48.078;11.968;2023-07-02T07:33:07;3.40;;;2.15;;
16828;SDS011;8531;48.078;11.968;2023-07-02T07:35:33;3.83;;;1.85;;
16828;SDS011;8531;48.078;11.968;2023-07-02T07:37:58;3.95;;;1.77;;
16828;SDS011;8531;48.078;11.968;2023-07-02T07:40:24;2.10;;;1.90;;
16828;SDS011;8531;48.078;11.968;2023-07-02T07:42:50;4.38;;;2.10;;
16828;SDS011;8531;48.078;11.968;2023-07-02T07:45:15;2.60;;;1.73;;
16828;SDS011;8531;48.078;11.968;2023-07-02T07:47:41;3.25;;;2.08;;
16828;SDS011;8531;48.078;11.968;2023-07-02T07:50:07;5.63;;;3.58;;
16828;SDS011;8531;48.078;11.968;2023-07-02T07:52:35;2.40;;;2.20;;
16828;SDS011;8531;48.078;11.968;2023-07-02T07:55:07;5.68;;;2.20;;
16828;SDS011;8531;48.078;11.968;2023-07-02T07:57:34;3.33;;;2.10;;
16828;SDS011;8531;48.078;11.968;2023-07-02T08:00:01;2.15;;;1.95;;
16828;SDS011;8531;48.078;11.968;2023-07-02T08:02:29;3.08;;;2.22;;
16828;SDS011;8531;48.078;11.968;2023-07-02T08:04:54;3.00;;;2.08;;
16828;SDS011;8531;48.078;11.968;2023-07-02T08:07:20;2.83;;;2.03;;
16828;SDS011;8531;48.078;11.968;2023-07-02T08:09:46;3.03;;;2.08;;
16828;SDS011;8531;48.078;11.968;2023-07-02T08:12:11;3.22;;;2.05;;
16828;SDS011;8531;48.078;11.968;2023-07-02T08:14:37;4.00;;;2.33;;
16828;SDS011;8531;48.078;11.968;2023-07-02T08:17:03;2.42;;;1.80;;
16828;SDS011;8531;48.078;11.968;2023-07-02T08:19:28;3.00;;;2.05;;
16828;SDS011;8531;48.078;11.968;2023-07-02T08:21:54;2.33;;;2.00;;
16828;SDS011;8531;48.078;11.968;2023-07-02T08:24:20;3.28;;;1.60;;
16828;SDS011;8531;48.078;11.968;2023-07-02T08:26:45;2.60;;;2.00;;
16828;SDS011;8531;48.078;11.968;2023-07-02T08:29:12;2.75;;;2.17;;
16828;SDS011;8531;48.078;11.968;2023-07-02T08:31:38;2.72;;;2.15;;
16828;SDS011;8531;48.078;11.968;2023-07-02T08:34:05;3.63;;;2.40;;
16828;SDS011;8531;48.078;11.968;2023-07-02T08:36:31;2.28;;;1.60;;
16828;SDS011;8531;48.078;11.968;2023-07-02T08:38:56;1.80;;;1.70;;
16828;SDS011;8531;48.078;11.968;2023-07-02T08:41:22;2.78;;;1.67;;
16828;SDS011;8531;48.078;11.968;2023-07-02T08:43:48;2.55;;;1.35;;
16828;SDS011;8531;48.078;11.968;2023-07-02T08:46:15;3.00;;;1.75;;
16828;SDS011;8531;48.078;11.968;2023-07-02T08:48:41;4.07;;;1.50;;
16828;SDS011;8531;48.078;11.968;2023-07-02T08:51:07;2.13;;;1.85;;
16828;SDS011;8531;48.078;11.968;2023-07-02T08:53:33;3.53;;;1.52;;
16828;SDS011;8531;48.078;11.968;2023-07-02T08:56:00;3.35;;;1.75;;
16828;SDS011;8531;48.078;11.968;2023-07-02T08:58:26;2.95;;;1.55;;
16828;SDS011;8531;48.078;11.968;2023-07-02T09:03:37;1.60;;;1.50;;
16828;SDS011;8531;48.078;11.968;2023-07-02T09:06:08;1.52;;;1.40;;
16828;SDS011;8531;48.078;11.968;2023-07-02T09:08:34;2.38;;;2.17;;
16828;SDS011;8531;48.078;11.968;2023-07-02T09:11:07;1.77;;;1.60;;
16828;SDS011;8531;48.078;11.968;2023-07-02T09:13:43;1.60;;;1.40;;
16828;SDS011;8531;48.078;11.968;2023-07-02T09:16:27;3.60;;;1.83;;
16828;SDS011;8531;48.078;11.968;2023-07-02T09:21:27;1.80;;;1.65;;
16828;SDS011;8531;48.078;11.968;2023-07-02T09:24:17;1.88;;;1.63;;
16828;SDS011;8531;48.078;11.968;2023-07-02T09:26:51;3.00;;;1.88;;
16828;SDS011;8531;48.078;11.968;2023-07-02T09:29:24;1.65;;;1.55;;
16828;SDS011;8531;48.078;11.968;2023-07-02T09:31:58;3.15;;;1.88;;
16828;SDS011;8531;48.078;11.968;2023-07-02T09:34:28;1.80;;;1.60;;
16828;SDS011;8531;48.078;11.968;2023-07-02T09:36:55;3.05;;;1.95;;
16828;SDS011;8531;48.078;11.968;2023-07-02T09:39:29;3.47;;;1.88;;
16828;SDS011;8531;48.078;11.968;2023-07-02T09:41:57;2.38;;;1.50;;
16828;SDS011;8531;48.078;11.968;2023-07-02T09:44:30;1.98;;;1.42;;
16828;SDS011;8531;48.078;11.968;2023-07-02T09:47:04;2.25;;;1.77;;
16828;SDS011;8531;48.078;11.968;2023-07-02T09:49:31;1.75;;;1.40;;
16828;SDS011;8531;48.078;11.968;2023-07-02T09:52:10;1.92;;;1.58;;
16828;SDS011;8531;48.078;11.968;2023-07-02T09:54:37;1.95;;;1.33;;
16828;SDS011;8531;48.078;11.968;2023-07-02T09:57:03;2.05;;;1.77;;
16828;SDS011;8531;48.078;11.968;2023-07-02T09:59:31;2.10;;;1.73;;
16828;SDS011;8531;48.078;11.968;2023-07-02T10:01:57;2.45;;;2.10;;
16828;SDS011;8531;48.078;11.968;2023-07-02T10:04:23;1.67;;;1.58;;
16828;SDS011;8531;48.078;11.968;2023-07-02T10:06:54;1.48;;;1.38;;
16828;SDS011;8531;48.078;11.968;2023-07-02T10:09:35;3.92;;;1.83;;
16828;SDS011;8531;48.078;11.968;2023-07-02T10:12:20;3.15;;;2.35;;
16828;SDS011;8531;48.078;11.968;2023-07-02T10:14:48;2.67;;;2.47;;
16828;SDS011;8531;48.078;11.968;2023-07-02T10:19:55;2.25;;;2.05;;
16828;SDS011;8531;48.078;11.968;2023-07-02T10:22:22;3.25;;;2.83;;
16828;SDS011;8531;48.078;11.968;2023-07-02T10:24:54;4.35;;;2.50;;
16828;SDS011;8531;48.078;11.968;2023-07-02T10:27:36;4.40;;;3.13;;
16828;SDS011;8531;48.078;11.968;2023-07-02T10:30:06;3.88;;;2.75;;
16828;SDS011;8531;48.078;11.968;2023-07-02T10:32:33;3.30;;;2.65;;
16828;SDS011;8531;48.078;11.968;2023-07-02T10:35:16;5.75;;;2.80;;
16828;SDS011;8531;48.078;11.968;2023-07-02T10:37:43;4.25;;;2.90;;
16828;SDS011;8531;48.078;11.968;2023-07-02T10:40:09;2.63;;;2.42;;
16828;SDS011;8531;48.078;11.968;2023-07-02T10:42:48;4.25;;;3.00;;
16828;SDS011;8531;48.078;11.968;2023-07-02T10:45:15;3.53;;;2.50;;
16828;SDS011;8531;48.078;11.968;2023-07-02T10:47:41;3.67;;;3.05;;
16828;SDS011;8531;48.078;11.968;2023-07-02T10:50:17;4.80;;;3.72;;
16828;SDS011;8531;48.078;11.968;2023-07-02T10:52:44;4.55;;;3.80;;
16828;SDS011;8531;48.078;11.968;2023-07-02T10:55:10;5.65;;;3.95;;
16828;SDS011;8531;48.078;11.968;2023-07-02T10:57:41;6.65;;;3.95;;
16828;SDS011;8531;48.078;11.968;2023-07-02T11:00:07;5.80;;;3.90;;
16828;SDS011;8531;48.078;11.968;2023-07-02T11:02:36;4.43;;;3.95;;
16828;SDS011;8531;48.078;11.968;2023-07-02T11:05:03;5.57;;;3.97;;
16828;SDS011;8531;48.078;11.968;2023-07-02T11:07:36;4.93;;;4.07;;
16828;SDS011;8531;48.078;11.968;2023-07-02T11:10:08;7.25;;;4.47;;
16828;SDS011;8531;48.078;11.968;2023-07-02T11:12:35;5.20;;;4.30;;
16828;SDS011;8531;48.078;11.968;2023-07-02T11:15:08;5.35;;;4.07;;
16828;SDS011;8531;48.078;11.968;2023-07-02T11:17:35;5.75;;;4.97;;
16828;SDS011;8531;48.078;11.968;2023-07-02T11:20:01;7.97;;;4.60;;
16828;SDS011;8531;48.078;11.968;2023-07-02T11:22:32;7.57;;;5.55;;
16828;SDS011;8531;48.078;11.968;2023-07-02T11:25:18;6.93;;;4.57;;
16828;SDS011;8531;48.078;11.968;2023-07-02T11:27:45;5.97;;;4.20;;
16828;SDS011;8531;48.078;11.968;2023-07-02T11:30:11;6.05;;;5.00;;
16828;SDS011;8531;48.078;11.968;2023-07-02T11:32:50;5.88;;;4.22;;
16828;SDS011;8531;48.078;11.968;2023-07-02T11:35:18;7.68;;;4.85;;
16828;SDS011;8531;48.078;11.968;2023-07-02T11:37:45;6.22;;;4.82;;
16828;SDS011;8531;48.078;11.968;2023-07-02T11:40:11;5.68;;;4.05;;
16828;SDS011;8531;48.078;11.968;2023-07-02T11:42:38;5.38;;;4.70;;
16828;SDS011;8531;48.078;11.968;2023-07-02T11:45:04;6.10;;;4.75;;
16828;SDS011;8531;48.078;11.968;2023-07-02T11:47:30;5.38;;;4.63;;
16828;SDS011;8531;48.078;11.968;2023-07-02T11:49:56;7.22;;;5.10;;
16828;SDS011;8531;48.078;11.968;2023-07-02T11:52:24;6.25;;;4.55;;
16828;SDS011;8531;48.078;11.968;2023-07-02T11:54:50;6.80;;;5.47;;
16828;SDS011;8531;48.078;11.968;2023-07-02T11:57:16;4.82;;;4.30;;
16828;SDS011;8531;48.078;11.968;2023-07-02T11:59:41;6.50;;;5.28;;
16828;SDS011;8531;48.078;11.968;2023-07-02T12:02:07;7.90;;;5.75;;
16828;SDS011;8531;48.078;11.968;2023-07-02T12:04:33;7.70;;;5.30;;
16828;SDS011;8531;48.078;11.968;2023-07-02T12:06:59;5.82;;;5.05;;
16828;SDS011;8531;48.078;11.968;2023-07-02T12:09:26;5.78;;;4.88;;
16828;SDS011;8531;48.078;11.968;2023-07-02T12:11:52;5.63;;;4.95;;
16828;SDS011;8531;48.078;11.968;2023-07-02T12:14:18;7.82;;;5.38;;
16828;SDS011;8531;48.078;11.968;2023-07-02T12:16:44;7.25;;;5.72;;
16828;SDS011;8531;48.078;11.968;2023-07-02T12:19:09;7.07;;;6.05;;
16828;SDS011;8531;48.078;11.968;2023-07-02T12:21:35;7.32;;;5.65;;
16828;SDS011;8531;48.078;11.968;2023-07-02T12:24:02;8.75;;;5.88;;
16828;SDS011;8531;48.078;11.968;2023-07-02T12:26:28;6.80;;;5.68;;
16828;SDS011;8531;48.078;11.968;2023-07-02T12:28:54;6.60;;;4.93;;
16828;SDS011;8531;48.078;11.968;2023-07-02T12:31:19;7.05;;;5.38;;
16828;SDS011;8531;48.078;11.968;2023-07-02T12:33:45;7.53;;;5.45;;
16828;SDS011;8531;48.078;11.968;2023-07-02T12:36:11;6.80;;;5.82;;
16828;SDS011;8531;48.078;11.968;2023-07-02T12:38:37;8.38;;;6.22;;
16828;SDS011;8531;48.078;11.968;2023-07-02T12:41:03;7.20;;;6.20;;
16828;SDS011;8531;48.078;11.968;2023-07-02T12:43:28;5.82;;;4.90;;
16828;SDS011;8531;48.078;11.968;2023-07-02T12:45:54;7.60;;;6.47;;
16828;SDS011;8531;48.078;11.968;2023-07-02T12:48:20;7.72;;;5.85;;
16828;SDS011;8531;48.078;11.968;2023-07-02T12:50:55;7.43;;;6.50;;
16828;SDS011;8531;48.078;11.968;2023-07-02T12:53:22;7.22;;;6.18;;
16828;SDS011;8531;48.078;11.968;2023-07-02T12:55:49;8.18;;;6.47;;
16828;SDS011;8531;48.078;11.968;2023-07-02T12:58:14;8.43;;;6.55;;
16828;SDS011;8531;48.078;11.968;2023-07-02T13:00:40;7.45;;;6.30;;
16828;SDS011;8531;48.078;11.968;2023-07-02T13:03:12;8.85;;;6.88;;
16828;SDS011;8531;48.078;11.968;2023-07-02T13:05:38;9.50;;;6.18;;
16828;SDS011;8531;48.078;11.968;2023-07-02T13:08:05;9.30;;;6.68;;
16828;SDS011;8531;48.078;11.968;2023-07-02T13:10:31;9.98;;;7.63;;
16828;SDS011;8531;48.078;11.968;2023-07-02T13:12:58;9.45;;;6.85;;
16828;SDS011;8531;48.078;11.968;2023-07-02T13:15:24;8.25;;;6.85;;
16828;SDS011;8531;48.078;11.968;2023-07-02T13:17:50;10.70;;;7.57;;
16828;SDS011;8531;48.078;11.968;2023-07-02T13:20:16;9.35;;;7.20;;
16828;SDS011;8531;48.078;11.968;2023-07-02T13:22:41;9.45;;;6.97;;
16828;SDS011;8531;48.078;11.968;2023-07-02T13:25:07;9.88;;;7.97;;
16828;SDS011;8531;48.078;11.968;2023-07-02T13:27:33;8.82;;;7.65;;
16828;SDS011;8531;48.078;11.968;2023-07-02T13:29:59;9.55;;;8.10;;
16828;SDS011;8531;48.078;11.968;2023-07-02T13:32:25;9.60;;;8.30;;
16828;SDS011;8531;48.078;11.968;2023-07-02T13:34:50;10.63;;;8.45;;
16828;SDS011;8531;48.078;11.968;2023-07-02T13:37:16;8.68;;;7.78;;
16828;SDS011;8531;48.078;11.968;2023-07-02T13:39:44;9.60;;;7.85;;
16828;SDS011;8531;48.078;11.968;2023-07-02T13:42:10;10.30;;;9.18;;
16828;SDS011;8531;48.078;11.968;2023-07-02T13:44:35;8.30;;;7.40;;
16828;SDS011;8531;48.078;11.968;2023-07-02T13:47:01;11.75;;;8.00;;
16828;SDS011;8531;48.078;11.968;2023-07-02T13:49:27;9.70;;;8.70;;
16828;SDS011;8531;48.078;11.968;2023-07-02T13:51:52;11.32;;;8.63;;
16828;SDS011;8531;48.078;11.968;2023-07-02T13:54:18;12.32;;;8.25;;
16828;SDS011;8531;48.078;11.968;2023-07-02T13:56:44;13.25;;;8.68;;
16828;SDS011;8531;48.078;11.968;2023-07-02T13:59:11;11.43;;;8.75;;
16828;SDS011;8531;48.078;11.968;2023-07-02T14:01:36;10.00;;;8.57;;
16828;SDS011;8531;48.078;11.968;2023-07-02T14:04:02;11.05;;;9.13;;
16828;SDS011;8531;48.078;11.968;2023-07-02T14:06:29;10.68;;;8.95;;
16828;SDS011;8531;48.078;11.968;2023-07-02T14:08:56;10.35;;;8.05;;
16828;SDS011;8531;48.078;11.968;2023-07-02T14:11:22;10.27;;;8.10;;
16828;SDS011;8531;48.078;11.968;2023-07-02T14:13:49;12.80;;;9.68;;
16828;SDS011;8531;48.078;11.968;2023-07-02T14:16:15;11.10;;;8.45;;
16828;SDS011;8531;48.078;11.968;2023-07-02T14:18:43;15.73;;;8.88;;
16828;SDS011;8531;48.078;11.968;2023-07-02T14:21:09;13.02;;;9.30;;
16828;SDS011;8531;48.078;11.968;2023-07-02T14:23:35;8.77;;;7.85;;
16828;SDS011;8531;48.078;11.968;2023-07-02T14:26:00;9.40;;;8.45;;
16828;SDS011;8531;48.078;11.968;2023-07-02T14:28:26;9.43;;;7.88;;
16828;SDS011;8531;48.078;11.968;2023-07-02T14:31:01;11.65;;;9.07;;
16828;SDS011;8531;48.078;11.968;2023-07-02T14:33:28;10.02;;;8.30;;
16828;SDS011;8531;48.078;11.968;2023-07-02T14:35:55;11.00;;;8.27;;
16828;SDS011;8531;48.078;11.968;2023-07-02T14:38:22;9.63;;;8.45;;
16828;SDS011;8531;48.078;11.968;2023-07-02T14:40:48;9.75;;;8.43;;
16828;SDS011;8531;48.078;11.968;2023-07-02T14:43:14;12.38;;;8.43;;
16828;SDS011;8531;48.078;11.968;2023-07-02T14:45:50;10.68;;;8.48;;
16828;SDS011;8531;48.078;11.968;2023-07-02T14:48:17;14.68;;;8.52;;
16828;SDS011;8531;48.078;11.968;2023-07-02T14:50:44;9.65;;;8.65;;
16828;SDS011;8531;48.078;11.968;2023-07-02T14:53:09;11.00;;;8.70;;